Time;durP1;ratioP1;P1;durP2;ratioP2;P2;SDS_P1;SDS_P2;PMS_P1;PMS_P2;Temp;Humidity;BMP_temperature;BMP_pressure;BME280_temperature;BME280_humidity;BME280_pressure;Samples;Min_cycle;Max_cycle;Signal;HPM_P1;HPM_P2
2021/12/19 00:04:26;;;;;;;22.58;11.98;;;;;;;5.74;100.00;103502.94;5269818;28;20033;-66
2021/12/19 00:09:47;;;;;;;19.98;11.20;;;;;;;5.68;100.00;103499.47;5268258;28;20040;-66
2021/12/19 00:12:19;;;;;;;20.40;11.15;;;;;;;5.67;100.00;103496.84;5270409;28;20036;-66
2021/12/19 00:14:50;;;;;;;21.48;11.45;;;;;;;5.70;100.00;103499.47;5276388;28;20097;-66
2021/12/19 00:17:21;;;;;;;19.88;10.68;;;;;;;5.70;100.00;103491.50;5271469;28;20148;-66
2021/12/19 00:19:53;;;;;;;22.13;11.48;;;;;;;5.69;100.00;103493.28;5272418;28;20059;-66
2021/12/19 00:22:24;;;;;;;20.60;11.48;;;;;;;5.68;100.00;103488.88;5270465;28;20424;-66
2021/12/19 00:24:55;;;;;;;23.60;12.20;;;;;;;5.67;100.00;103487.13;5273676;28;20497;-66
2021/12/19 00:27:26;;;;;;;22.10;12.63;;;;;;;5.67;100.00;103488.91;5281981;28;20024;-66
2021/12/19 00:29:58;;;;;;;22.63;12.48;;;;;;;5.64;100.00;103486.31;5272632;28;20056;-66
2021/12/19 00:32:29;;;;;;;25.13;13.27;;;;;;;5.65;100.00;103480.09;5275911;28;20032;-66
2021/12/19 00:35:01;;;;;;;26.65;13.27;;;;;;;5.62;100.00;103478.38;5262847;28;20031;-66
2021/12/19 00:37:32;;;;;;;27.73;13.90;;;;;;;5.70;100.00;103472.97;5276634;28;20031;-66
2021/12/19 00:40:05;;;;;;;26.15;13.50;;;;;;;5.62;100.00;103470.44;5268430;28;20041;-66
2021/12/19 00:42:37;;;;;;;32.65;14.65;;;;;;;5.58;100.00;103468.72;5268645;28;20501;-66
2021/12/19 00:45:28;;;;;;;29.65;15.20;;;;;;;5.65;100.00;103467.72;5283161;28;20529;-67
2021/12/19 00:48:01;;;;;;;31.13;14.30;;;;;;;5.58;100.00;103474.03;5273634;28;20053;-66
2021/12/19 00:50:34;;;;;;;32.53;14.73;;;;;;;5.56;100.00;103473.16;5267735;28;20043;-66
2021/12/19 00:53:05;;;;;;;31.45;14.65;;;;;;;5.57;100.00;103471.38;5266840;28;20063;-66
2021/12/19 00:55:37;;;;;;;33.88;14.15;;;;;;;5.53;100.00;103467.91;5266283;28;20739;-66
2021/12/19 00:58:09;;;;;;;35.75;15.57;;;;;;;5.51;100.00;103464.41;5266638;28;20055;-66
2021/12/19 01:00:40;;;;;;;32.55;13.80;;;;;;;5.57;100.00;103471.38;5273468;28;20029;-66
2021/12/19 01:03:11;;;;;;;34.38;15.15;;;;;;;5.60;100.00;103464.28;5268029;28;20189;-66
2021/12/19 01:05:43;;;;;;;34.88;15.18;;;;;;;5.57;100.00;103468.75;5275783;28;20493;-66
2021/12/19 01:08:15;;;;;;;34.22;14.88;;;;;;;5.55;100.00;103467.88;5266514;28;20379;-66
2021/12/19 01:10:48;;;;;;;35.05;16.17;;;;;;;5.49;100.00;103468.84;5276553;28;20390;-66
2021/12/19 01:13:19;;;;;;;41.08;16.67;;;;;;;5.45;100.00;103461.84;5269936;28;20025;-66
2021/12/19 01:15:51;;;;;;;38.63;16.80;;;;;;;5.44;100.00;103460.94;5276216;28;20032;-66
2021/12/19 01:18:23;;;;;;;39.03;16.52;;;;;;;5.41;100.00;103458.34;5280599;28;20036;-66
2021/12/19 01:20:55;;;;;;;41.95;16.45;;;;;;;5.42;100.00;103460.06;5273850;28;20415;-66
2021/12/19 01:23:26;;;;;;;38.72;16.17;;;;;;;5.42;100.00;103452.13;5271109;28;20024;-66
2021/12/19 01:25:58;;;;;;;37.60;16.73;;;;;;;5.46;100.00;103448.53;5276271;28;20437;-66
2021/12/19 01:28:29;;;;;;;40.85;15.57;;;;;;;5.42;100.00;103445.97;5279479;28;20074;-66
2021/12/19 01:31:00;;;;;;;42.92;16.52;;;;;;;5.41;100.00;103454.81;5271762;28;20516;-66
2021/12/19 01:33:32;;;;;;;35.75;15.07;;;;;;;5.49;100.00;103440.56;5275920;28;20374;-66
2021/12/19 01:36:04;;;;;;;45.67;15.75;;;;;;;5.44;100.00;103455.63;5275028;28;20355;-66
2021/12/19 01:38:35;;;;;;;45.28;16.25;;;;;;;5.45;100.00;103446.81;5278670;28;20048;-66
2021/12/19 01:41:07;;;;;;;44.70;16.15;;;;;;;5.45;100.00;103446.81;5278847;28;20056;-66
2021/12/19 01:43:39;;;;;;;39.58;14.10;;;;;;;5.38;100.00;103438.97;5267864;28;20021;-66
2021/12/19 01:46:10;;;;;;;35.47;13.80;;;;;;;5.34;100.00;103442.56;5272850;28;20036;-66
2021/12/19 01:48:41;;;;;;;35.60;13.55;;;;;;;5.34;100.00;103445.19;5272328;28;20045;-66
2021/12/19 01:51:12;;;;;;;38.72;14.48;;;;;;;5.29;100.00;103442.59;5266521;28;20035;-66
2021/12/19 01:53:44;;;;;;;36.17;13.27;;;;;;;5.28;100.00;103441.72;5271077;28;20111;-66
2021/12/19 01:56:15;;;;;;;39.60;14.40;;;;;;;5.25;100.00;103428.56;5276868;28;20024;-66
2021/12/19 01:58:47;;;;;;;40.22;13.82;;;;;;;5.25;100.00;103431.19;5270714;28;20020;-66
2021/12/19 02:01:18;;;;;;;42.97;14.40;;;;;;;5.26;100.00;103430.28;5276998;28;20398;-66
2021/12/19 02:03:49;;;;;;;35.67;13.57;;;;;;;5.29;100.00;103432.00;5273634;28;20025;-66
2021/12/19 02:06:20;;;;;;;40.92;13.52;;;;;;;5.27;100.00;103429.41;5287952;28;20070;-66
2021/12/19 02:08:55;;;;;;;37.08;12.75;;;;;;;5.27;100.00;103426.75;5275095;28;20513;-66
2021/12/19 02:11:27;;;;;;;34.38;12.95;;;;;;;5.29;100.00;103422.31;5273907;28;20028;-66
2021/12/19 02:13:59;;;;;;;36.80;14.00;;;;;;;5.29;100.00;103424.97;5270542;28;20085;-66
2021/12/19 02:16:31;;;;;;;33.22;13.57;;;;;;;5.25;100.00;103417.97;5277638;28;20020;-66
2021/12/19 02:19:04;;;;;;;33.88;12.77;;;;;;;5.25;100.00;103417.97;5279047;28;21598;-66
2021/12/19 02:21:35;;;;;;;31.63;13.18;;;;;;;5.26;100.00;103429.41;5275592;28;20024;-66
2021/12/19 02:24:10;;;;;;;34.08;13.95;;;;;;;5.25;100.00;103431.19;5282081;28;20028;-66
2021/12/19 02:26:41;;;;;;;40.55;15.10;;;;;;;5.23;100.00;103411.78;5274884;28;20063;-66
2021/12/19 02:29:13;;;;;;;37.00;13.70;;;;;;;5.21;100.00;103407.41;5274444;28;20108;-66
2021/12/19 02:31:45;;;;;;;41.97;14.95;;;;;;;5.22;100.00;103411.81;5274235;28;20032;-66
2021/12/19 02:34:21;;;;;;;42.03;14.57;;;;;;;5.19;100.00;103410.06;5289332;28;20470;-66
2021/12/19 02:48:16;;;;;;;40.08;14.95;;;;;;;5.22;100.00;103394.16;5273729;28;20036;-66
2021/12/19 02:50:52;;;;;;;50.83;16.55;;;;;;;5.20;100.00;103384.50;5271113;28;20142;-66
2021/12/19 02:53:39;;;;;;;49.67;17.30;;;;;;;5.23;100.00;103395.91;5274516;28;20042;-65
2021/12/19 02:56:11;;;;;;;54.85;17.58;;;;;;;5.23;100.00;103382.66;5275761;28;20074;-65
2021/12/19 02:58:43;;;;;;;60.20;17.25;;;;;;;5.19;100.00;103380.97;5270391;28;20024;-65
2021/12/19 03:01:17;;;;;;;60.55;17.92;;;;;;;5.20;100.00;103384.50;5271235;28;20082;-65
2021/12/19 03:03:48;;;;;;;50.17;16.98;;;;;;;5.25;100.00;103382.66;5278927;28;20035;-66
2021/12/19 03:06:20;;;;;;;49.50;17.10;;;;;;;5.28;100.00;103370.25;5274502;28;20036;-66
2021/12/19 03:08:52;;;;;;;61.03;17.75;;;;;;;5.21;100.00;103370.34;5275541;28;20089;-65
2021/12/19 03:11:59;;;;;;;60.90;17.85;;;;;;;5.21;100.00;103373.00;5264843;28;20032;-65
2021/12/19 03:20:01;;;;;;;69.13;19.60;;;;;;;5.14;100.00;103364.28;5274390;28;20470;-66
2021/12/19 03:22:32;;;;;;;64.22;19.02;;;;;;;5.13;100.00;103367.81;5277193;28;20025;-66
2021/12/19 03:25:04;;;;;;;73.10;19.83;;;;;;;5.14;100.00;103364.28;5282057;28;20024;-65
2021/12/19 03:27:35;;;;;;;69.63;19.40;;;;;;;5.14;100.00;103353.69;5268074;28;20055;-65
2021/12/19 03:30:07;;;;;;;64.07;19.52;;;;;;;5.15;100.00;103358.09;5282636;28;20029;-65
2021/12/19 03:32:39;;;;;;;76.00;19.63;;;;;;;5.13;100.00;103346.66;5265259;28;20028;-65
2021/12/19 03:35:11;;;;;;;74.25;20.27;;;;;;;5.11;100.00;103341.38;5279546;28;20029;-66
2021/12/19 03:37:43;;;;;;;78.07;21.25;;;;;;;5.09;100.00;103339.66;5271858;28;20595;-66
2021/12/19 03:40:23;;;;;;;81.18;20.67;;;;;;;5.08;100.00;103332.59;5273440;28;20032;-66
2021/12/19 03:42:54;;;;;;;86.90;21.52;;;;;;;5.11;100.00;103329.91;5270390;28;20095;-65
2021/12/19 03:45:26;;;;;;;83.90;21.80;;;;;;;5.11;100.00;103343.16;5265531;28;20057;-65
2021/12/19 03:47:57;;;;;;;86.05;21.85;;;;;;;5.09;100.00;103343.16;5271192;28;20033;-66
2021/12/19 03:50:30;;;;;;;78.82;20.55;;;;;;;5.09;100.00;103331.72;5283390;28;20013;-66
2021/12/19 03:53:02;;;;;;;94.90;22.48;;;;;;;5.08;100.00;103325.56;5265268;28;20033;-66
2021/12/19 03:55:34;;;;;;;88.57;21.40;;;;;;;5.07;100.00;103333.50;5281103;28;20385;-66
2021/12/19 03:58:05;;;;;;;80.57;21.50;;;;;;;5.07;100.00;103334.38;5263099;28;20053;-66
2021/12/19 04:00:38;;;;;;;71.97;20.00;;;;;;;5.10;100.00;103314.91;5271879;28;20048;-66
2021/12/19 04:03:16;;;;;;;77.20;20.95;;;;;;;5.07;100.00;103323.78;5264384;28;20077;-65
2021/12/19 04:05:50;;;;;;;66.38;19.65;;;;;;;5.00;100.00;103324.75;5265655;28;20080;-66
2021/12/19 04:08:22;;;;;;;75.47;20.95;;;;;;;4.97;100.00;103319.53;5269650;28;20509;-66
2021/12/19 04:10:54;;;;;;;84.03;21.20;;;;;;;4.97;100.00;103321.31;5265249;28;20108;-66
2021/12/19 04:13:25;;;;;;;80.57;21.52;;;;;;;4.97;100.00;103324.81;5263229;28;20029;-66
2021/12/19 04:15:56;;;;;;;79.57;21.65;;;;;;;4.96;100.00;103312.47;5278060;28;20029;-66
2021/12/19 04:18:27;;;;;;;74.25;19.98;;;;;;;4.97;100.00;103318.66;5271949;28;20471;-66
2021/12/19 04:20:59;;;;;;;68.25;19.15;;;;;;;4.98;100.00;103309.81;5265214;28;20037;-66
2021/12/19 04:23:31;;;;;;;57.67;16.63;;;;;;;5.01;100.00;103307.13;5275549;28;20035;-66
2021/12/19 04:26:02;;;;;;;67.55;17.10;;;;;;;4.91;100.00;103304.59;5264593;28;20441;-66
2021/12/19 04:28:33;;;;;;;69.30;18.95;;;;;;;4.88;100.00;103293.19;5276890;28;20032;-65
2021/12/19 04:31:05;;;;;;;67.20;16.70;;;;;;;4.89;100.00;103287.88;5281042;28;20028;-65
2021/12/19 04:33:39;;;;;;;67.43;17.42;;;;;;;4.96;100.00;103288.66;5273167;28;20377;-65
2021/12/19 04:36:16;;;;;;;66.70;16.20;;;;;;;4.90;100.00;103296.69;5274197;28;20021;-65
2021/12/19 04:53:09;;;;;;;47.10;14.93;;;;;;;4.88;100.00;103280.81;5277313;28;20284;-66
2021/12/19 05:01:10;;;;;;;43.25;13.13;;;;;;;4.76;100.00;103265.13;5284230;28;20051;-65
2021/12/19 05:06:53;;;;;;;43.47;12.07;;;;;;;4.75;100.00;103266.00;5278775;28;20479;-65
2021/12/19 05:15:04;;;;;;;42.97;11.95;;;;;;;4.69;100.00;103261.66;5271683;28;20037;-66
2021/12/19 05:17:35;;;;;;;51.10;12.57;;;;;;;4.68;100.00;103259.06;5266022;28;20029;-65
2021/12/19 05:20:14;;;;;;;46.03;12.18;;;;;;;4.69;100.00;103271.38;5279226;28;20060;-65
2021/12/19 05:22:50;;;;;;;57.22;13.30;;;;;;;4.68;100.00;103256.44;5274849;28;20032;-65
2021/12/19 05:25:21;;;;;;;50.80;13.50;;;;;;;4.68;100.00;103264.38;5273170;28;20122;-65
2021/12/19 05:27:55;;;;;;;52.28;13.20;;;;;;;4.68;100.00;103259.94;5265739;28;20037;-66
2021/12/19 05:30:27;;;;;;;49.25;13.18;;;;;;;4.67;100.00;103266.09;5274756;28;20029;-66
2021/12/19 05:33:00;;;;;;;42.22;13.15;;;;;;;4.75;100.00;103266.00;5275557;28;20039;-66
2021/12/19 05:44:13;;;;;;;68.63;15.38;;;;;;;4.70;100.00;103267.84;5281688;28;20064;-65
2021/12/19 05:46:41;;;;;;;70.18;17.13;;;;;;;4.65;100.00;103265.25;5270301;28;20742;-66
2021/12/19 05:49:13;;;;;;;72.82;17.90;;;;;;;4.65;100.00;103251.16;5269779;28;20040;-66
2021/12/19 05:51:44;;;;;;;67.28;17.05;;;;;;;4.63;100.00;103264.41;5273675;28;20090;-66
2021/12/19 05:54:15;;;;;;;60.47;15.85;;;;;;;4.64;100.00;103262.63;5276380;28;20024;-65
2021/12/19 05:56:47;;;;;;;49.00;12.95;;;;;;;4.59;100.00;103261.81;5274545;28;20032;-66
2021/12/19 05:59:18;;;;;;;46.38;13.15;;;;;;;4.60;100.00;103258.28;5272254;28;20253;-65
2021/12/19 06:01:49;;;;;;;36.88;11.95;;;;;;;4.61;100.00;103260.03;5278363;28;20064;-66
2021/12/19 06:04:21;;;;;;;40.28;11.15;;;;;;;4.74;100.00;103252.78;5270867;28;20401;-66
2021/12/19 06:06:52;;;;;;;41.53;13.30;;;;;;;4.74;100.00;103243.13;5270664;28;20068;-66
2021/12/19 06:09:23;;;;;;;39.92;12.40;;;;;;;4.65;100.00;103236.16;5274181;28;20036;-66
2021/12/19 06:11:55;;;;;;;32.75;11.48;;;;;;;4.68;100.00;103237.91;5274870;28;20024;-66
2021/12/19 06:14:31;;;;;;;29.65;11.35;;;;;;;4.67;100.00;103237.03;5277167;28;20441;-66
2021/12/19 06:17:04;;;;;;;31.13;11.88;;;;;;;4.68;100.00;103237.91;5272854;28;20065;-66
2021/12/19 06:19:36;;;;;;;33.95;11.95;;;;;;;4.68;100.00;103238.78;5277767;28;20447;-66
2021/12/19 06:22:08;;;;;;;29.95;11.80;;;;;;;4.67;100.00;103244.09;5276492;28;20382;-66
2021/12/19 06:24:39;;;;;;;29.35;11.73;;;;;;;4.63;100.00;103242.38;5273498;28;20111;-65
2021/12/19 06:27:11;;;;;;;30.95;12.25;;;;;;;4.63;100.00;103240.59;5271114;28;20050;-65
2021/12/19 06:29:42;;;;;;;36.72;13.32;;;;;;;4.66;100.00;103237.94;5279542;28;20072;-65
2021/12/19 06:32:13;;;;;;;39.97;14.43;;;;;;;4.63;100.00;103239.75;5274450;28;20111;-65
2021/12/19 06:34:45;;;;;;;44.60;15.15;;;;;;;4.65;100.00;103241.47;5274651;28;20028;-65
2021/12/19 06:37:16;;;;;;;41.38;15.07;;;;;;;4.67;100.00;103231.72;5270918;28;20030;-66
2021/12/19 06:39:47;;;;;;;43.97;16.52;;;;;;;4.67;100.00;103233.50;5270219;28;20082;-66
2021/12/19 06:42:19;;;;;;;47.08;16.20;;;;;;;4.66;100.00;103232.66;5274927;28;20043;-66
2021/12/19 06:44:50;;;;;;;46.45;17.00;;;;;;;4.69;100.00;103224.66;5266196;28;20380;-66
2021/12/19 06:47:21;;;;;;;50.22;18.10;;;;;;;4.67;100.00;103228.22;5275366;28;20132;-65
2021/12/19 06:49:52;;;;;;;51.28;18.45;;;;;;;4.68;100.00;103227.34;5266155;28;20032;-65
2021/12/19 06:52:24;;;;;;;61.33;18.38;;;;;;;4.70;100.00;103218.47;5269758;28;20032;-65
2021/12/19 06:54:55;;;;;;;54.40;19.27;;;;;;;4.71;100.00;103206.13;5275573;28;20070;-65
2021/12/19 06:57:26;;;;;;;57.97;20.20;;;;;;;4.70;100.00;103212.31;5272591;28;20032;-65
2021/12/19 06:59:58;;;;;;;55.00;18.85;;;;;;;4.68;100.00;103200.91;5265090;28;20029;-65
2021/12/19 07:02:29;;;;;;;49.30;17.30;;;;;;;4.80;100.00;103199.84;5273760;28;20492;-65
2021/12/19 07:05:01;;;;;;;57.42;19.40;;;;;;;4.71;100.00;103190.25;5271499;28;20032;-65
2021/12/19 07:07:32;;;;;;;51.92;19.23;;;;;;;4.78;100.00;103197.22;5264766;28;20051;-65
2021/12/19 07:10:06;;;;;;;61.00;20.20;;;;;;;4.82;100.00;103196.28;5263353;28;20028;-65
2021/12/19 07:12:37;;;;;;;68.60;21.75;;;;;;;4.78;100.00;103197.22;5262256;28;20169;-65
2021/12/19 07:15:09;;;;;;;64.38;21.75;;;;;;;4.81;100.00;103191.88;5262438;28;20159;-65
2021/12/19 07:17:41;;;;;;;73.43;24.23;;;;;;;4.79;100.00;103196.31;5260777;28;20601;-65
2021/12/19 07:20:12;;;;;;;66.63;21.50;;;;;;;4.84;100.00;103185.69;5263864;28;20529;-65
2021/12/19 07:22:43;;;;;;;59.70;21.80;;;;;;;4.80;100.00;103186.63;5263253;28;20094;-65
2021/12/19 07:25:15;;;;;;;66.93;21.90;;;;;;;4.84;100.00;103185.69;5261183;28;20024;-65
2021/12/19 07:27:47;;;;;;;66.35;22.42;;;;;;;4.83;100.00;103190.09;5259750;28;20052;-65
2021/12/19 07:30:18;;;;;;;64.78;21.58;;;;;;;4.91;100.00;103182.91;5262184;28;20222;-65
2021/12/19 07:32:49;;;;;;;73.93;24.15;;;;;;;4.87;100.00;103191.81;5263781;28;20025;-65
2021/12/19 07:35:22;;;;;;;66.85;22.48;;;;;;;4.93;100.00;103189.94;5259768;28;20066;-65
2021/12/19 07:37:55;;;;;;;72.55;23.70;;;;;;;4.93;100.00;103190.84;5260754;28;20028;-65
2021/12/19 07:40:35;;;;;;;69.55;22.98;;;;;;;4.90;100.00;103183.78;5261681;28;20067;-65
2021/12/19 07:43:08;;;;;;;55.72;22.05;;;;;;;4.99;100.00;103176.63;5257380;28;20055;-65
2021/12/19 07:45:40;;;;;;;64.43;24.73;;;;;;;4.95;100.00;103185.50;5261416;28;20024;-66
2021/12/19 07:48:11;;;;;;;70.35;24.25;;;;;;;4.94;100.00;103181.13;5260295;28;20028;-65
2021/12/19 07:50:42;;;;;;;71.25;25.02;;;;;;;4.96;100.00;103168.75;5261505;28;20090;-65
2021/12/19 07:53:14;;;;;;;77.53;24.95;;;;;;;4.97;100.00;103179.31;5262028;28;20036;-66
2021/12/19 07:55:45;;;;;;;72.90;24.52;;;;;;;5.08;100.00;103176.47;5258585;28;20152;-65
2021/12/19 07:58:16;;;;;;;76.70;26.40;;;;;;;5.02;100.00;103166.84;5254345;28;20039;-65
2021/12/19 08:00:48;;;;;;;88.30;25.35;;;;;;;5.05;100.00;103168.59;5262317;28;20111;-65
2021/12/19 08:03:19;;;;;;;74.72;24.60;;;;;;;5.01;100.00;103173.06;5260951;28;20056;-65
2021/12/19 08:05:50;;;;;;;68.95;23.77;;;;;;;5.00;100.00;103162.50;5261085;28;20021;-65
2021/12/19 08:08:26;;;;;;;64.82;21.98;;;;;;;5.00;100.00;103168.66;5261092;28;20341;-65
2021/12/19 08:13:47;;;;;;;58.30;20.38;;;;;;;5.02;100.00;103163.34;5256363;28;20119;-65
2021/12/19 08:16:19;;;;;;;53.08;18.23;;;;;;;5.15;100.00;103167.53;5257447;28;20300;-66
2021/12/19 08:18:52;;;;;;;52.08;18.83;;;;;;;5.11;100.00;103157.91;5254125;28;20039;-65
2021/12/19 08:21:23;;;;;;;48.80;18.97;;;;;;;5.15;100.00;103164.03;5260846;28;20078;-65
2021/12/19 08:23:59;;;;;;;50.63;18.45;;;;;;;5.17;100.00;103160.44;5259820;28;20077;-65
2021/12/19 08:26:30;;;;;;;46.70;18.05;;;;;;;5.17;100.00;103171.03;5259022;28;20032;-65
2021/12/19 08:29:02;;;;;;;44.58;16.85;;;;;;;5.16;100.00;103160.47;5259341;28;20032;-66
2021/12/19 08:31:34;;;;;;;37.50;15.10;;;;;;;5.17;100.00;103160.44;5259545;28;20025;-65
2021/12/19 08:34:06;;;;;;;37.92;14.05;;;;;;;5.21;100.00;103148.91;5259767;28;20068;-66
2021/12/19 08:36:37;;;;;;;50.13;14.23;;;;;;;5.21;100.00;103156.84;5263844;28;20044;-65
2021/12/19 08:39:10;;;;;;;36.00;14.63;;;;;;;5.27;100.00;103156.78;5264666;28;20028;-65
2021/12/19 08:41:42;;;;;;;49.30;16.70;;;;;;;5.24;100.00;103159.47;5261382;28;20027;-65
2021/12/19 08:44:13;;;;;;;55.83;18.00;;;;;;;5.25;100.00;103161.22;5277195;28;20029;-65
2021/12/19 08:46:45;;;;;;;53.75;18.40;;;;;;;5.24;100.00;103154.16;5278709;28;20041;-65
2021/12/19 08:49:17;;;;;;;59.85;20.13;;;;;;;5.25;100.00;103170.91;5269854;28;20059;-65
2021/12/19 08:51:48;;;;;;;60.03;20.25;;;;;;;5.25;100.00;103166.50;5281206;28;20082;-65
2021/12/19 08:54:21;;;;;;;63.47;20.95;;;;;;;5.29;100.00;103164.66;5277494;28;20151;-65
2021/12/19 08:56:52;;;;;;;64.63;20.75;;;;;;;5.36;100.00;103149.56;5273354;28;20191;-66
2021/12/19 08:59:26;;;;;;;64.88;20.50;;;;;;;5.48;100.00;103147.59;5271769;28;20032;-65
2021/12/19 09:02:01;;;;;;;66.25;22.17;;;;;;;5.40;100.00;103148.59;5270999;28;20025;-65
2021/12/19 09:04:33;;;;;;;69.13;23.65;;;;;;;5.45;100.00;103158.22;5271943;28;20389;-66
2021/12/19 09:07:04;;;;;;;65.85;22.60;;;;;;;5.40;100.00;103146.81;5273500;28;20039;-66
2021/12/19 09:09:35;;;;;;;62.65;21.13;;;;;;;5.42;100.00;103149.44;5284837;28;20032;-66
2021/12/19 09:12:07;;;;;;;56.90;20.08;;;;;;;5.47;100.00;103151.13;5264760;28;20039;-65
2021/12/19 09:14:39;;;;;;;58.58;19.83;;;;;;;5.56;100.00;103142.16;5261215;28;20067;-66
2021/12/19 09:17:10;;;;;;;52.50;18.55;;;;;;;5.53;100.00;103136.91;5266756;28;20032;-66
2021/12/19 09:19:42;;;;;;;42.45;16.38;;;;;;;5.67;100.00;103139.28;5266403;28;20056;-66
2021/12/19 09:22:13;;;;;;;44.38;16.02;;;;;;;5.64;100.00;103145.50;5265636;28;20032;-65
2021/12/19 09:24:44;;;;;;;46.97;15.65;;;;;;;5.67;100.00;103139.28;5266911;28;20029;-65
2021/12/19 09:27:16;;;;;;;30.85;12.73;;;;;;;5.63;100.00;103127.88;5272148;28;20029;-65
2021/12/19 09:29:47;;;;;;;29.15;11.82;;;;;;;5.74;100.00;103134.75;5266592;28;20069;-65
2021/12/19 09:32:19;;;;;;;24.23;10.05;;;;;;;5.69;100.00;103124.22;5267290;28;20078;-65
2021/12/19 09:34:50;;;;;;;26.77;10.52;;;;;;;5.74;100.00;103125.03;5271258;28;20029;-65
2021/12/19 09:37:22;;;;;;;25.00;9.05;;;;;;;5.73;100.00;103135.63;5268556;28;20229;-66
2021/12/19 09:39:53;;;;;;;19.52;7.95;;;;;;;5.70;100.00;103126.00;5269781;28;20036;-65
2021/12/19 09:42:33;;;;;;;16.20;7.43;;;;;;;5.73;100.00;103133.00;5270245;28;20025;-65
2021/12/19 09:45:05;;;;;;;14.23;5.93;;;;;;;5.69;100.00;103133.06;5265168;28;20056;-65
2021/12/19 09:47:37;;;;;;;14.15;5.13;;;;;;;5.67;100.00;103126.91;5267587;28;20033;-65
2021/12/19 09:50:09;;;;;;;15.45;5.65;;;;;;;5.74;100.00;103132.09;5262971;28;20368;-65
2021/12/19 09:52:41;;;;;;;16.27;5.97;;;;;;;5.75;100.00;103123.25;5266474;28;20028;-65
2021/12/19 09:55:18;;;;;;;12.20;5.43;;;;;;;5.79;100.00;103123.16;5272306;28;20095;-65
2021/12/19 09:57:52;;;;;;;12.57;5.65;;;;;;;5.70;100.00;103126.00;5266019;28;20021;-66
2021/12/19 10:00:24;;;;;;;15.00;5.47;;;;;;;5.68;100.00;103123.38;5271387;28;20051;-66
2021/12/19 10:02:55;;;;;;;14.88;6.00;;;;;;;5.73;100.00;103125.03;5270698;28;20024;-66
2021/12/19 10:05:27;;;;;;;14.00;6.78;;;;;;;5.73;100.00;103125.91;5268786;28;20043;-66
2021/12/19 10:08:04;;;;;;;14.75;6.35;;;;;;;5.73;100.00;103127.69;5268183;28;20061;-66
2021/12/19 10:10:54;;;;;;;16.83;6.70;;;;;;;5.77;100.00;103124.06;5262922;28;20118;-66
2021/12/19 10:13:34;;;;;;;18.02;7.03;;;;;;;5.81;100.00;103125.75;5270617;28;20020;-65
2021/12/19 10:16:24;;;;;;;15.75;7.35;;;;;;;5.85;100.00;103114.22;5266000;28;20028;-65
2021/12/19 10:18:59;;;;;;;18.08;8.05;;;;;;;5.81;100.00;103116.06;5262146;28;20025;-65
2021/12/19 10:21:35;;;;;;;16.98;8.18;;;;;;;5.79;100.00;103103.72;5266208;28;20040;-65
2021/12/19 10:24:09;;;;;;;21.42;8.80;;;;;;;5.81;100.00;103107.22;5266701;28;20040;-65
2021/12/19 10:26:42;;;;;;;18.83;8.30;;;;;;;5.79;100.00;103101.06;5261393;28;20115;-65
2021/12/19 10:29:14;;;;;;;18.00;8.63;;;;;;;5.77;100.00;103100.25;5261398;28;20478;-65
2021/12/19 10:32:02;;;;;;;19.10;8.27;;;;;;;5.80;100.00;103095.75;5263884;28;20291;-65
2021/12/19 10:34:33;;;;;;;21.63;9.13;;;;;;;5.84;100.00;103097.44;5261648;28;20028;-65
2021/12/19 10:37:05;;;;;;;19.88;8.93;;;;;;;5.85;100.00;103091.25;5265668;28;20043;-65
2021/12/19 10:39:39;;;;;;;18.92;9.02;;;;;;;5.86;100.00;103095.63;5270191;28;20450;-66
2021/12/19 10:42:11;;;;;;;19.83;9.40;;;;;;;5.87;100.00;103083.28;5267000;28;20024;-66
2021/12/19 10:47:34;;;;;;;18.35;8.85;;;;;;;5.85;100.00;103082.44;5258490;28;20402;-66
2021/12/19 10:50:06;;;;;;;20.02;8.95;;;;;;;5.83;100.00;103082.47;5267743;28;20020;-66
2021/12/19 10:52:39;;;;;;;16.33;8.27;;;;;;;5.83;100.00;103079.81;5269363;28;20024;-66
2021/12/19 10:55:14;;;;;;;19.60;9.13;;;;;;;5.81;100.00;103072.78;5261793;28;20081;-66
2021/12/19 10:57:46;;;;;;;20.88;9.52;;;;;;;5.78;100.00;103065.78;5264111;28;20032;-65
2021/12/19 11:00:27;;;;;;;19.52;10.30;;;;;;;5.76;100.00;103072.88;5270301;28;20473;-65
2021/12/19 11:02:59;;;;;;;17.55;9.43;;;;;;;5.78;100.00;103071.06;5268730;28;20051;-65
2021/12/19 11:05:40;;;;;;;18.95;9.48;;;;;;;5.85;100.00;103071.84;5261307;28;20025;-66
2021/12/19 11:08:11;;;;;;;19.70;8.85;;;;;;;5.91;100.00;103066.41;5264074;28;20119;-66
2021/12/19 11:10:42;;;;;;;17.35;8.70;;;;;;;5.86;100.00;103063.84;5269362;28;20481;-66
2021/12/19 11:13:16;;;;;;;15.05;7.53;;;;;;;5.91;100.00;103047.84;5264936;28;20469;-66
2021/12/19 11:15:49;;;;;;;16.33;8.30;;;;;;;5.95;100.00;103040.72;5267108;28;20028;-66
2021/12/19 11:18:21;;;;;;;16.25;8.32;;;;;;;5.95;100.00;103049.56;5263533;28;20029;-66
2021/12/19 11:20:52;;;;;;;14.73;7.70;;;;;;;5.96;100.00;103031.88;5262972;28;20033;-66
2021/12/19 11:23:26;;;;;;;14.38;7.32;;;;;;;6.00;100.00;103028.25;5266373;28;20083;-66
2021/12/19 11:25:58;;;;;;;16.50;8.27;;;;;;;5.96;100.00;103022.16;5260330;28;20054;-66
2021/12/19 11:28:30;;;;;;;14.52;7.35;;;;;;;5.96;100.00;103021.28;5264400;28;20329;-66
2021/12/19 11:31:02;;;;;;;15.02;6.95;;;;;;;6.00;100.00;103007.06;5268432;28;20063;-65
2021/12/19 11:33:46;;;;;;;12.68;6.60;;;;;;;5.99;100.00;103016.78;5258498;28;20037;-66
2021/12/19 11:36:19;;;;;;;13.40;6.97;;;;;;;6.04;100.00;103009.63;5264071;28;20032;-65
2021/12/19 11:38:52;;;;;;;13.57;7.20;;;;;;;6.01;100.00;102998.22;5266855;28;20037;-65
2021/12/19 11:41:24;;;;;;;12.48;6.57;;;;;;;6.05;100.00;103000.75;5262747;28;20490;-66
2021/12/19 11:43:58;;;;;;;13.30;7.18;;;;;;;6.08;100.00;102995.38;5269122;28;20020;-66
2021/12/19 11:46:53;;;;;;;12.73;6.40;;;;;;;6.11;100.00;102999.75;5262283;28;20119;-66
2021/12/19 11:49:27;;;;;;;10.95;5.50;;;;;;;6.02;100.00;102997.28;5271468;28;20111;-66
2021/12/19 11:52:25;;;;;;;10.85;5.80;;;;;;;6.05;100.00;102994.59;5265771;28;20031;-66
2021/12/19 11:55:55;;;;;;;10.35;5.85;;;;;;;6.02;100.00;102987.59;5269102;28;20115;-65
2021/12/19 11:58:29;;;;;;;10.30;5.57;;;;;;;5.96;100.00;102990.34;5256637;28;20124;-66
2021/12/19 12:01:02;;;;;;;12.50;6.10;;;;;;;5.97;100.00;102978.00;5263794;28;20048;-66
2021/12/19 12:03:45;;;;;;;11.18;5.55;;;;;;;5.99;100.00;102984.13;5268258;28;20433;-66
2021/12/19 12:06:20;;;;;;;10.75;5.93;;;;;;;6.00;100.00;102978.81;5264589;28;20029;-66
2021/12/19 12:09:10;;;;;;;11.85;6.20;;;;;;;6.00;100.00;102981.44;5257313;28;20048;-66
2021/12/19 12:12:08;;;;;;;12.70;6.22;;;;;;;6.04;100.00;102977.81;5259686;28;20035;-66
2021/12/19 12:14:53;;;;;;;10.27;5.47;;;;;;;6.07;100.00;102975.06;5264584;28;20044;-66
2021/12/19 12:17:34;;;;;;;10.15;4.95;;;;;;;6.06;100.00;102980.44;5262231;28;20059;-65
2021/12/19 12:20:20;;;;;;;8.82;4.25;;;;;;;6.06;100.00;102972.50;5261241;28;20106;-65
2021/12/19 12:22:58;;;;;;;8.50;4.40;;;;;;;6.07;100.00;102964.47;5262138;28;20060;-65
2021/12/19 12:25:33;;;;;;;9.13;4.70;;;;;;;6.15;100.00;102958.13;5270688;28;20409;-65
2021/12/19 12:28:08;;;;;;;9.07;4.93;;;;;;;6.14;100.00;102962.56;5259731;28;20314;-65
2021/12/19 12:30:45;;;;;;;8.88;4.35;;;;;;;6.07;100.00;102955.66;5268662;28;20087;-66
2021/12/19 12:33:20;;;;;;;8.05;4.50;;;;;;;6.16;100.00;102957.25;5271240;28;20039;-65
2021/12/19 12:35:54;;;;;;;8.38;4.20;;;;;;;6.06;100.00;102957.44;5269942;28;20044;-65
2021/12/19 12:38:26;;;;;;;8.27;4.60;;;;;;;6.14;100.00;102956.41;5259472;28;20032;-65
2021/12/19 12:41:09;;;;;;;9.55;4.80;;;;;;;6.05;100.00;102952.19;5264133;28;20537;-65
2021/12/19 12:43:40;;;;;;;7.85;4.30;;;;;;;6.08;100.00;102937.09;5261703;28;20056;-65
2021/12/19 12:46:19;;;;;;;7.80;4.47;;;;;;;6.06;100.00;102936.25;5260943;28;20162;-66